Terminal Aerodrome Forecast
Issued by NWS Dodge City, KS

Home | Current Version | Previous Version | Text Only | Print | Product List | Glossary On
Versions: 1 2 3 4 5 6 7 8 9 10 11 12 13 14 15 16 17 18 19 20 21 22 23 24
000
FTUS43 KDDC 271136
TAFDDC
TAF
KDDC 271136Z 2712/2812 28007KT P6SM SCT015 BKN025
     FM271600 27008KT P6SM SCT110
     FM272100 18012KT P6SM VCTS SCT200CB
     FM280300 24007KT P6SM SCT250=

USA.gov is the U.S. government's official web portal to all federal, state and local government web resources and services.